sensor_id;sensor_type;location;lat;lon;timestamp;temperature;humidity
10129;DHT22;5104;50.720;7.044;2023-02-18T00:01:19;11.30;1.00
10129;DHT22;5104;50.720;7.044;2023-02-18T00:03:46;11.30;1.00
10129;DHT22;5104;50.720;7.044;2023-02-18T00:06:16;11.40;99.90
10129;DHT22;5104;50.720;7.044;2023-02-18T00:08:44;11.40;99.90
10129;DHT22;5104;50.720;7.044;2023-02-18T00:11:14;11.40;99.90
10129;DHT22;5104;50.720;7.044;2023-02-18T00:13:41;11.40;99.90
10129;DHT22;5104;50.720;7.044;2023-02-18T00:16:10;11.40;74.50
10129;DHT22;5104;50.720;7.044;2023-02-18T00:18:38;11.40;99.90
10129;DHT22;5104;50.720;7.044;2023-02-18T00:21:06;11.30;99.90
10129;DHT22;5104;50.720;7.044;2023-02-18T00:23:35;11.40;99.90
10129;DHT22;5104;50.720;7.044;2023-02-18T00:26:04;11.30;99.90
10129;DHT22;5104;50.720;7.044;2023-02-18T00:28:31;11.30;1.00
10129;DHT22;5104;50.720;7.044;2023-02-18T00:30:58;11.30;1.00
10129;DHT22;5104;50.720;7.044;2023-02-18T00:33:26;11.20;31.50
10129;DHT22;5104;50.720;7.044;2023-02-18T00:36:00;11.20;1.00
10129;DHT22;5104;50.720;7.044;2023-02-18T00:38:27;11.20;1.00
10129;DHT22;5104;50.720;7.044;2023-02-18T00:40:56;11.10;97.10
10129;DHT22;5104;50.720;7.044;2023-02-18T00:43:23;11.00;1.00
10129;DHT22;5104;50.720;7.044;2023-02-18T00:45:50;10.90;99.90
10129;DHT22;5104;50.720;7.044;2023-02-18T00:48:17;10.90;1.00
10129;DHT22;5104;50.720;7.044;2023-02-18T00:50:44;10.90;99.90
10129;DHT22;5104;50.720;7.044;2023-02-18T00:53:11;10.90;1.00
10129;DHT22;5104;50.720;7.044;2023-02-18T00:55:39;10.80;1.00
10129;DHT22;5104;50.720;7.044;2023-02-18T00:58:07;10.80;1.00
10129;DHT22;5104;50.720;7.044;2023-02-18T01:00:35;10.90;1.00
10129;DHT22;5104;50.720;7.044;2023-02-18T01:03:02;10.90;1.00
10129;DHT22;5104;50.720;7.044;2023-02-18T01:05:30;10.90;1.00
10129;DHT22;5104;50.720;7.044;2023-02-18T01:07:58;11.00;1.00
10129;DHT22;5104;50.720;7.044;2023-02-18T01:10:25;11.00;1.00
10129;DHT22;5104;50.720;7.044;2023-02-18T01:12:52;11.10;1.00
10129;DHT22;5104;50.720;7.044;2023-02-18T01:15:24;11.10;1.00
10129;DHT22;5104;50.720;7.044;2023-02-18T01:17:52;11.10;1.00
10129;DHT22;5104;50.720;7.044;2023-02-18T01:20:19;11.20;1.00
10129;DHT22;5104;50.720;7.044;2023-02-18T01:22:49;11.20;1.00
10129;DHT22;5104;50.720;7.044;2023-02-18T01:25:17;11.20;1.00
10129;DHT22;5104;50.720;7.044;2023-02-18T01:27:44;11.20;1.00
10129;DHT22;5104;50.720;7.044;2023-02-18T01:30:14;11.30;1.00
10129;DHT22;5104;50.720;7.044;2023-02-18T01:32:44;11.30;1.00
10129;DHT22;5104;50.720;7.044;2023-02-18T01:35:13;11.20;1.00
10129;DHT22;5104;50.720;7.044;2023-02-18T01:37:41;11.20;1.00
10129;DHT22;5104;50.720;7.044;2023-02-18T01:40:15;11.30;1.00
10129;DHT22;5104;50.720;7.044;2023-02-18T01:42:46;11.30;1.00
10129;DHT22;5104;50.720;7.044;2023-02-18T01:45:41;11.30;1.00
10129;DHT22;5104;50.720;7.044;2023-02-18T01:48:16;11.30;1.00
10129;DHT22;5104;50.720;7.044;2023-02-18T01:50:47;11.30;1.00
10129;DHT22;5104;50.720;7.044;2023-02-18T01:53:17;11.30;1.00
10129;DHT22;5104;50.720;7.044;2023-02-18T01:55:46;11.30;1.00
10129;DHT22;5104;50.720;7.044;2023-02-18T01:58:15;11.30;1.00
10129;DHT22;5104;50.720;7.044;2023-02-18T02:00:42;11.30;14.80
10129;DHT22;5104;50.720;7.044;2023-02-18T02:03:09;11.30;61.00
10129;DHT22;5104;50.720;7.044;2023-02-18T02:05:38;11.30;98.70
10129;DHT22;5104;50.720;7.044;2023-02-18T02:08:05;11.30;98.90
10129;DHT22;5104;50.720;7.044;2023-02-18T02:10:41;11.30;99.90
10129;DHT22;5104;50.720;7.044;2023-02-18T02:13:15;11.20;99.90
10129;DHT22;5104;50.720;7.044;2023-02-18T02:15:47;11.20;99.90
10129;DHT22;5104;50.720;7.044;2023-02-18T02:18:27;11.20;99.90
10129;DHT22;5104;50.720;7.044;2023-02-18T02:21:25;11.20;99.90
10129;DHT22;5104;50.720;7.044;2023-02-18T02:24:40;11.20;99.90
10129;DHT22;5104;50.720;7.044;2023-02-18T02:27:14;11.10;99.90
10129;DHT22;5104;50.720;7.044;2023-02-18T02:30:23;11.10;99.90
10129;DHT22;5104;50.720;7.044;2023-02-18T02:36:13;11.00;99.90
10129;DHT22;5104;50.720;7.044;2023-02-18T02:38:49;11.10;99.90
10129;DHT22;5104;50.720;7.044;2023-02-18T02:41:30;11.00;99.90
10129;DHT22;5104;50.720;7.044;2023-02-18T02:44:11;11.10;99.90
10129;DHT22;5104;50.720;7.044;2023-02-18T02:46:44;11.10;99.90
10129;DHT22;5104;50.720;7.044;2023-02-18T02:49:19;11.10;99.90
10129;DHT22;5104;50.720;7.044;2023-02-18T02:51:54;11.10;99.90
10129;DHT22;5104;50.720;7.044;2023-02-18T02:54:24;11.00;99.90
10129;DHT22;5104;50.720;7.044;2023-02-18T02:57:05;11.10;99.90
10129;DHT22;5104;50.720;7.044;2023-02-18T02:59:34;11.10;99.90
10129;DHT22;5104;50.720;7.044;2023-02-18T03:02:17;11.10;99.90
10129;DHT22;5104;50.720;7.044;2023-02-18T03:05:14;11.10;99.90
10129;DHT22;5104;50.720;7.044;2023-02-18T03:08:04;11.20;99.90
10129;DHT22;5104;50.720;7.044;2023-02-18T03:10:45;11.20;99.90
10129;DHT22;5104;50.720;7.044;2023-02-18T03:13:21;11.20;99.90
10129;DHT22;5104;50.720;7.044;2023-02-18T03:15:55;11.20;1.00
10129;DHT22;5104;50.720;7.044;2023-02-18T03:18:29;11.20;1.00
10129;DHT22;5104;50.720;7.044;2023-02-18T03:21:02;11.20;1.00
10129;DHT22;5104;50.720;7.044;2023-02-18T03:23:37;11.30;1.00
10129;DHT22;5104;50.720;7.044;2023-02-18T03:26:05;11.30;99.90
10129;DHT22;5104;50.720;7.044;2023-02-18T03:28:32;11.40;7.20
10129;DHT22;5104;50.720;7.044;2023-02-18T03:31:04;11.40;99.90
10129;DHT22;5104;50.720;7.044;2023-02-18T03:33:36;11.50;99.90
10129;DHT22;5104;50.720;7.044;2023-02-18T03:36:08;11.50;99.90
10129;DHT22;5104;50.720;7.044;2023-02-18T03:38:39;11.50;93.30
10129;DHT22;5104;50.720;7.044;2023-02-18T03:41:08;11.50;99.90
10129;DHT22;5104;50.720;7.044;2023-02-18T03:43:39;11.50;1.00
10129;DHT22;5104;50.720;7.044;2023-02-18T03:46:06;11.60;99.90
10129;DHT22;5104;50.720;7.044;2023-02-18T03:48:34;11.60;1.00
10129;DHT22;5104;50.720;7.044;2023-02-18T03:51:01;11.60;1.00
10129;DHT22;5104;50.720;7.044;2023-02-18T03:53:29;11.70;59.30
10129;DHT22;5104;50.720;7.044;2023-02-18T03:55:57;11.70;1.00
10129;DHT22;5104;50.720;7.044;2023-02-18T03:58:24;11.70;1.00
10129;DHT22;5104;50.720;7.044;2023-02-18T04:00:51;11.70;1.00
10129;DHT22;5104;50.720;7.044;2023-02-18T04:03:18;11.70;99.90
10129;DHT22;5104;50.720;7.044;2023-02-18T04:05:45;11.70;99.90
10129;DHT22;5104;50.720;7.044;2023-02-18T04:08:12;11.80;1.00
10129;DHT22;5104;50.720;7.044;2023-02-18T04:10:39;11.70;1.00
10129;DHT22;5104;50.720;7.044;2023-02-18T04:13:08;11.80;1.00
10129;DHT22;5104;50.720;7.044;2023-02-18T04:15:35;11.80;1.00
10129;DHT22;5104;50.720;7.044;2023-02-18T04:18:02;11.80;1.00
10129;DHT22;5104;50.720;7.044;2023-02-18T04:20:29;11.90;1.00
10129;DHT22;5104;50.720;7.044;2023-02-18T04:22:56;11.90;99.90
10129;DHT22;5104;50.720;7.044;2023-02-18T04:25:23;11.90;99.90
10129;DHT22;5104;50.720;7.044;2023-02-18T04:27:50;11.90;99.90
10129;DHT22;5104;50.720;7.044;2023-02-18T04:30:18;11.90;99.90
10129;DHT22;5104;50.720;7.044;2023-02-18T04:32:45;11.90;99.90
10129;DHT22;5104;50.720;7.044;2023-02-18T04:35:13;11.90;99.90
10129;DHT22;5104;50.720;7.044;2023-02-18T04:37:40;11.90;99.90
10129;DHT22;5104;50.720;7.044;2023-02-18T04:40:08;11.90;1.00
10129;DHT22;5104;50.720;7.044;2023-02-18T04:42:35;11.90;1.00
10129;DHT22;5104;50.720;7.044;2023-02-18T04:45:05;11.80;1.00
10129;DHT22;5104;50.720;7.044;2023-02-18T04:47:34;11.80;1.00
10129;DHT22;5104;50.720;7.044;2023-02-18T04:50:01;11.80;99.90
10129;DHT22;5104;50.720;7.044;2023-02-18T04:52:28;11.90;99.90
10129;DHT22;5104;50.720;7.044;2023-02-18T04:54:55;11.90;99.90
10129;DHT22;5104;50.720;7.044;2023-02-18T04:57:22;11.90;99.90
10129;DHT22;5104;50.720;7.044;2023-02-18T04:59:52;11.90;99.90
10129;DHT22;5104;50.720;7.044;2023-02-18T05:02:19;11.90;51.50
10129;DHT22;5104;50.720;7.044;2023-02-18T05:04:47;11.90;99.90
10129;DHT22;5104;50.720;7.044;2023-02-18T05:07:15;11.90;99.90
10129;DHT22;5104;50.720;7.044;2023-02-18T05:09:42;11.90;1.00
10129;DHT22;5104;50.720;7.044;2023-02-18T05:12:08;11.90;1.00
10129;DHT22;5104;50.720;7.044;2023-02-18T05:14:35;11.90;1.00
10129;DHT22;5104;50.720;7.044;2023-02-18T05:17:02;11.90;1.00
10129;DHT22;5104;50.720;7.044;2023-02-18T05:19:29;11.90;1.00
10129;DHT22;5104;50.720;7.044;2023-02-18T05:21:58;11.90;1.00
10129;DHT22;5104;50.720;7.044;2023-02-18T05:24:25;11.90;1.00
10129;DHT22;5104;50.720;7.044;2023-02-18T05:26:52;11.90;1.00
10129;DHT22;5104;50.720;7.044;2023-02-18T05:29:19;11.80;1.00
10129;DHT22;5104;50.720;7.044;2023-02-18T05:31:46;11.90;1.00
10129;DHT22;5104;50.720;7.044;2023-02-18T05:34:13;11.90;1.00
10129;DHT22;5104;50.720;7.044;2023-02-18T05:36:40;11.90;1.00
10129;DHT22;5104;50.720;7.044;2023-02-18T05:39:09;11.90;1.00
10129;DHT22;5104;50.720;7.044;2023-02-18T05:41:36;11.90;1.00
10129;DHT22;5104;50.720;7.044;2023-02-18T05:44:03;11.80;1.00
10129;DHT22;5104;50.720;7.044;2023-02-18T05:46:48;11.90;1.00
10129;DHT22;5104;50.720;7.044;2023-02-18T05:49:15;11.90;1.00
10129;DHT22;5104;50.720;7.044;2023-02-18T05:51:42;11.80;1.00
10129;DHT22;5104;50.720;7.044;2023-02-18T05:54:10;11.80;82.20
10129;DHT22;5104;50.720;7.044;2023-02-18T05:56:37;11.80;1.00
10129;DHT22;5104;50.720;7.044;2023-02-18T05:59:05;11.80;1.00
10129;DHT22;5104;50.720;7.044;2023-02-18T06:01:32;11.80;1.00
10129;DHT22;5104;50.720;7.044;2023-02-18T06:03:59;11.80;1.00
10129;DHT22;5104;50.720;7.044;2023-02-18T06:06:26;11.70;1.00
10129;DHT22;5104;50.720;7.044;2023-02-18T06:08:53;11.80;1.00
10129;DHT22;5104;50.720;7.044;2023-02-18T06:11:21;11.80;1.00
10129;DHT22;5104;50.720;7.044;2023-02-18T06:13:48;11.80;1.00
10129;DHT22;5104;50.720;7.044;2023-02-18T06:16:16;11.70;1.00
10129;DHT22;5104;50.720;7.044;2023-02-18T06:18:43;11.80;1.00
10129;DHT22;5104;50.720;7.044;2023-02-18T06:21:10;11.70;1.00
10129;DHT22;5104;50.720;7.044;2023-02-18T06:23:37;11.70;1.00
10129;DHT22;5104;50.720;7.044;2023-02-18T06:26:04;11.80;1.00
10129;DHT22;5104;50.720;7.044;2023-02-18T06:28:32;11.70;1.00
10129;DHT22;5104;50.720;7.044;2023-02-18T06:30:59;11.70;1.00
10129;DHT22;5104;50.720;7.044;2023-02-18T06:33:33;11.60;1.00
10129;DHT22;5104;50.720;7.044;2023-02-18T06:36:05;11.60;1.00
10129;DHT22;5104;50.720;7.044;2023-02-18T06:38:32;11.60;1.00
10129;DHT22;5104;50.720;7.044;2023-02-18T06:40:59;11.60;1.00
10129;DHT22;5104;50.720;7.044;2023-02-18T06:43:27;11.50;1.00
10129;DHT22;5104;50.720;7.044;2023-02-18T06:45:56;11.50;1.00
10129;DHT22;5104;50.720;7.044;2023-02-18T06:48:23;11.50;1.00
10129;DHT22;5104;50.720;7.044;2023-02-18T06:50:50;11.40;62.50
10129;DHT22;5104;50.720;7.044;2023-02-18T06:53:17;11.40;1.00
10129;DHT22;5104;50.720;7.044;2023-02-18T06:55:44;11.50;1.00
10129;DHT22;5104;50.720;7.044;2023-02-18T06:58:12;11.50;1.00
10129;DHT22;5104;50.720;7.044;2023-02-18T07:00:39;11.50;1.00
10129;DHT22;5104;50.720;7.044;2023-02-18T07:03:09;11.40;1.00
10129;DHT22;5104;50.720;7.044;2023-02-18T07:05:37;11.40;1.00
10129;DHT22;5104;50.720;7.044;2023-02-18T07:08:04;11.30;1.00
10129;DHT22;5104;50.720;7.044;2023-02-18T07:10:31;11.30;1.00
10129;DHT22;5104;50.720;7.044;2023-02-18T07:12:58;11.40;57.20
10129;DHT22;5104;50.720;7.044;2023-02-18T07:15:25;11.40;1.00
10129;DHT22;5104;50.720;7.044;2023-02-18T07:17:53;11.40;1.00
10129;DHT22;5104;50.720;7.044;2023-02-18T07:20:22;11.30;1.00
10129;DHT22;5104;50.720;7.044;2023-02-18T07:22:49;11.40;1.00
10129;DHT22;5104;50.720;7.044;2023-02-18T07:25:16;11.40;1.00
10129;DHT22;5104;50.720;7.044;2023-02-18T07:27:43;11.50;1.00
10129;DHT22;5104;50.720;7.044;2023-02-18T07:30:11;11.50;1.00
10129;DHT22;5104;50.720;7.044;2023-02-18T07:32:38;11.50;99.90
10129;DHT22;5104;50.720;7.044;2023-02-18T07:35:06;11.60;99.90
10129;DHT22;5104;50.720;7.044;2023-02-18T07:37:34;11.70;1.00
10129;DHT22;5104;50.720;7.044;2023-02-18T07:40:01;11.80;1.00
10129;DHT22;5104;50.720;7.044;2023-02-18T07:42:28;11.80;1.00
10129;DHT22;5104;50.720;7.044;2023-02-18T07:44:55;11.80;1.00
10129;DHT22;5104;50.720;7.044;2023-02-18T07:47:22;11.90;1.00
10129;DHT22;5104;50.720;7.044;2023-02-18T07:49:49;11.90;1.00
10129;DHT22;5104;50.720;7.044;2023-02-18T07:52:16;11.90;1.00
10129;DHT22;5104;50.720;7.044;2023-02-18T07:54:44;11.90;1.00
10129;DHT22;5104;50.720;7.044;2023-02-18T07:57:11;11.90;1.00
10129;DHT22;5104;50.720;7.044;2023-02-18T07:59:38;11.90;1.00
10129;DHT22;5104;50.720;7.044;2023-02-18T08:02:06;11.90;1.00
10129;DHT22;5104;50.720;7.044;2023-02-18T08:04:33;11.90;1.00
10129;DHT22;5104;50.720;7.044;2023-02-18T08:07:00;11.90;1.00
10129;DHT22;5104;50.720;7.044;2023-02-18T08:09:27;11.90;1.00
10129;DHT22;5104;50.720;7.044;2023-02-18T08:11:55;12.00;1.00
10129;DHT22;5104;50.720;7.044;2023-02-18T08:14:22;12.00;99.90
10129;DHT22;5104;50.720;7.044;2023-02-18T08:16:49;12.00;96.90
10129;DHT22;5104;50.720;7.044;2023-02-18T08:19:17;12.00;55.80
10129;DHT22;5104;50.720;7.044;2023-02-18T08:21:44;12.00;39.40
10129;DHT22;5104;50.720;7.044;2023-02-18T08:24:11;12.00;99.90
10129;DHT22;5104;50.720;7.044;2023-02-18T08:26:38;11.90;99.90
10129;DHT22;5104;50.720;7.044;2023-02-18T08:29:06;11.90;99.90
10129;DHT22;5104;50.720;7.044;2023-02-18T08:31:33;11.90;99.90
10129;DHT22;5104;50.720;7.044;2023-02-18T08:34:01;11.90;82.00
10129;DHT22;5104;50.720;7.044;2023-02-18T08:36:29;12.00;11.90
10129;DHT22;5104;50.720;7.044;2023-02-18T08:38:56;11.90;7.10
10129;DHT22;5104;50.720;7.044;2023-02-18T08:41:23;11.80;99.90
10129;DHT22;5104;50.720;7.044;2023-02-18T08:43:50;11.80;1.00
10129;DHT22;5104;50.720;7.044;2023-02-18T08:46:18;11.70;1.00
10129;DHT22;5104;50.720;7.044;2023-02-18T08:48:45;11.60;1.00
10129;DHT22;5104;50.720;7.044;2023-02-18T08:51:13;11.40;99.90
10129;DHT22;5104;50.720;7.044;2023-02-18T08:53:41;11.20;1.00
10129;DHT22;5104;50.720;7.044;2023-02-18T08:56:09;11.10;1.00
10129;DHT22;5104;50.720;7.044;2023-02-18T08:58:36;10.90;1.00
10129;DHT22;5104;50.720;7.044;2023-02-18T09:01:04;10.70;99.90
10129;DHT22;5104;50.720;7.044;2023-02-18T09:03:34;10.60;1.00
10129;DHT22;5104;50.720;7.044;2023-02-18T09:06:02;10.50;99.90
10129;DHT22;5104;50.720;7.044;2023-02-18T09:08:29;10.40;99.90
10129;DHT22;5104;50.720;7.044;2023-02-18T09:10:56;10.30;99.90
10129;DHT22;5104;50.720;7.044;2023-02-18T09:13:23;10.40;99.90
10129;DHT22;5104;50.720;7.044;2023-02-18T09:15:58;10.40;99.90
10129;DHT22;5104;50.720;7.044;2023-02-18T09:18:25;10.50;99.90
10129;DHT22;5104;50.720;7.044;2023-02-18T09:20:56;10.60;99.90
10129;DHT22;5104;50.720;7.044;2023-02-18T09:23:24;10.60;18.10
10129;DHT22;5104;50.720;7.044;2023-02-18T09:25:51;10.70;1.00
10129;DHT22;5104;50.720;7.044;2023-02-18T09:28:17;10.70;1.00
10129;DHT22;5104;50.720;7.044;2023-02-18T09:30:44;10.70;1.00
10129;DHT22;5104;50.720;7.044;2023-02-18T09:33:12;10.70;1.00
10129;DHT22;5104;50.720;7.044;2023-02-18T09:35:40;10.70;1.00
10129;DHT22;5104;50.720;7.044;2023-02-18T09:38:10;10.80;1.00
10129;DHT22;5104;50.720;7.044;2023-02-18T09:40:41;10.80;1.00
10129;DHT22;5104;50.720;7.044;2023-02-18T09:43:15;10.80;99.90
10129;DHT22;5104;50.720;7.044;2023-02-18T09:45:44;10.90;1.00
10129;DHT22;5104;50.720;7.044;2023-02-18T09:48:11;10.90;1.00
10129;DHT22;5104;50.720;7.044;2023-02-18T09:50:38;11.00;28.60
10129;DHT22;5104;50.720;7.044;2023-02-18T09:53:05;11.00;84.80
10129;DHT22;5104;50.720;7.044;2023-02-18T09:55:37;11.00;1.00
10129;DHT22;5104;50.720;7.044;2023-02-18T09:58:11;11.10;99.90
10129;DHT22;5104;50.720;7.044;2023-02-18T10:00:41;11.20;99.90
10129;DHT22;5104;50.720;7.044;2023-02-18T10:03:13;11.30;1.00
10129;DHT22;5104;50.720;7.044;2023-02-18T10:05:45;11.50;1.00
10129;DHT22;5104;50.720;7.044;2023-02-18T10:08:18;11.60;1.00
10129;DHT22;5104;50.720;7.044;2023-02-18T10:10:48;11.70;1.00
10129;DHT22;5104;50.720;7.044;2023-02-18T10:13:17;11.70;1.00
10129;DHT22;5104;50.720;7.044;2023-02-18T10:15:45;11.80;1.00
10129;DHT22;5104;50.720;7.044;2023-02-18T10:18:27;11.90;99.90
10129;DHT22;5104;50.720;7.044;2023-02-18T10:21:04;11.90;99.90
10129;DHT22;5104;50.720;7.044;2023-02-18T10:23:33;11.90;99.90
10129;DHT22;5104;50.720;7.044;2023-02-18T10:26:04;11.90;16.10
10129;DHT22;5104;50.720;7.044;2023-02-18T10:28:34;11.90;24.60
10129;DHT22;5104;50.720;7.044;2023-02-18T10:31:04;11.90;99.90
10129;DHT22;5104;50.720;7.044;2023-02-18T10:33:38;11.90;1.00
10129;DHT22;5104;50.720;7.044;2023-02-18T10:36:20;11.90;29.90
10129;DHT22;5104;50.720;7.044;2023-02-18T10:39:17;12.00;1.00
10129;DHT22;5104;50.720;7.044;2023-02-18T10:41:54;12.00;1.00
10129;DHT22;5104;50.720;7.044;2023-02-18T10:44:29;12.10;1.00
10129;DHT22;5104;50.720;7.044;2023-02-18T10:47:09;12.00;6.50
10129;DHT22;5104;50.720;7.044;2023-02-18T10:49:55;12.10;62.40
10129;DHT22;5104;50.720;7.044;2023-02-18T10:52:22;12.20;1.00
10129;DHT22;5104;50.720;7.044;2023-02-18T10:54:52;12.20;1.00
10129;DHT22;5104;50.720;7.044;2023-02-18T10:57:25;12.50;1.00
10129;DHT22;5104;50.720;7.044;2023-02-18T10:59:57;12.70;1.00
10129;DHT22;5104;50.720;7.044;2023-02-18T11:02:27;12.70;1.00
10129;DHT22;5104;50.720;7.044;2023-02-18T11:04:57;12.90;99.90
10129;DHT22;5104;50.720;7.044;2023-02-18T11:07:30;13.00;99.90
10129;DHT22;5104;50.720;7.044;2023-02-18T11:10:00;13.00;99.90
10129;DHT22;5104;50.720;7.044;2023-02-18T11:12:33;12.90;99.90
10129;DHT22;5104;50.720;7.044;2023-02-18T11:15:14;12.90;99.90
10129;DHT22;5104;50.720;7.044;2023-02-18T11:17:43;12.90;99.90
10129;DHT22;5104;50.720;7.044;2023-02-18T11:20:31;12.70;1.00
10129;DHT22;5104;50.720;7.044;2023-02-18T11:23:16;12.70;1.00
10129;DHT22;5104;50.720;7.044;2023-02-18T11:25:53;12.60;40.90
10129;DHT22;5104;50.720;7.044;2023-02-18T11:28:41;12.50;1.00
10129;DHT22;5104;50.720;7.044;2023-02-18T11:31:11;12.40;1.00
10129;DHT22;5104;50.720;7.044;2023-02-18T11:33:43;12.00;85.50
10129;DHT22;5104;50.720;7.044;2023-02-18T11:36:18;11.70;99.90
10129;DHT22;5104;50.720;7.044;2023-02-18T11:38:51;11.50;99.90
10129;DHT22;5104;50.720;7.044;2023-02-18T11:41:20;11.40;99.90
10129;DHT22;5104;50.720;7.044;2023-02-18T11:43:51;11.40;99.90
10129;DHT22;5104;50.720;7.044;2023-02-18T11:46:21;11.30;99.90
10129;DHT22;5104;50.720;7.044;2023-02-18T11:48:49;11.40;99.90
10129;DHT22;5104;50.720;7.044;2023-02-18T11:51:18;11.40;1.00
10129;DHT22;5104;50.720;7.044;2023-02-18T11:54:00;11.50;1.00
10129;DHT22;5104;50.720;7.044;2023-02-18T11:56:30;11.70;1.00
10129;DHT22;5104;50.720;7.044;2023-02-18T11:59:00;11.70;99.90
10129;DHT22;5104;50.720;7.044;2023-02-18T12:01:35;11.80;99.90
10129;DHT22;5104;50.720;7.044;2023-02-18T12:04:09;11.80;1.00
10129;DHT22;5104;50.720;7.044;2023-02-18T12:06:44;11.80;78.80
10129;DHT22;5104;50.720;7.044;2023-02-18T12:09:19;11.80;99.90
10129;DHT22;5104;50.720;7.044;2023-02-18T12:11:50;11.70;1.00
10129;DHT22;5104;50.720;7.044;2023-02-18T12:14:21;11.60;99.90
10129;DHT22;5104;50.720;7.044;2023-02-18T12:17:15;11.50;1.00
10129;DHT22;5104;50.720;7.044;2023-02-18T12:20:02;11.40;1.00
10129;DHT22;5104;50.720;7.044;2023-02-18T12:22:40;11.40;1.00
10129;DHT22;5104;50.720;7.044;2023-02-18T12:25:24;11.40;1.00
10129;DHT22;5104;50.720;7.044;2023-02-18T12:28:07;11.40;99.90
10129;DHT22;5104;50.720;7.044;2023-02-18T12:33:51;11.30;99.90
10129;DHT22;5104;50.720;7.044;2023-02-18T12:36:30;11.30;1.00
10129;DHT22;5104;50.720;7.044;2023-02-18T12:39:08;11.40;1.00
10129;DHT22;5104;50.720;7.044;2023-02-18T12:41:52;11.50;1.00
10129;DHT22;5104;50.720;7.044;2023-02-18T12:44:39;11.50;1.00
10129;DHT22;5104;50.720;7.044;2023-02-18T12:47:29;11.60;1.00
10129;DHT22;5104;50.720;7.044;2023-02-18T12:50:12;11.60;99.90
10129;DHT22;5104;50.720;7.044;2023-02-18T12:52:49;11.70;99.90
10129;DHT22;5104;50.720;7.044;2023-02-18T12:55:30;11.80;1.00
10129;DHT22;5104;50.720;7.044;2023-02-18T12:58:09;11.70;1.00
10129;DHT22;5104;50.720;7.044;2023-02-18T13:01:03;11.70;1.00
10129;DHT22;5104;50.720;7.044;2023-02-18T13:03:54;11.70;99.90
10129;DHT22;5104;50.720;7.044;2023-02-18T13:06:41;11.70;99.90
10129;DHT22;5104;50.720;7.044;2023-02-18T13:09:16;11.80;99.90
10129;DHT22;5104;50.720;7.044;2023-02-18T13:11:55;11.90;99.90
10129;DHT22;5104;50.720;7.044;2023-02-18T13:14:28;11.90;99.90
10129;DHT22;5104;50.720;7.044;2023-02-18T13:16:59;12.00;99.90
10129;DHT22;5104;50.720;7.044;2023-02-18T13:19:32;12.10;99.90
10129;DHT22;5104;50.720;7.044;2023-02-18T13:22:02;12.10;1.00
10129;DHT22;5104;50.720;7.044;2023-02-18T13:24:32;12.10;1.00
10129;DHT22;5104;50.720;7.044;2023-02-18T13:27:09;12.10;99.90
10129;DHT22;5104;50.720;7.044;2023-02-18T13:29:43;12.10;1.00
10129;DHT22;5104;50.720;7.044;2023-02-18T13:32:19;12.10;1.00
10129;DHT22;5104;50.720;7.044;2023-02-18T13:34:55;12.10;99.90
10129;DHT22;5104;50.720;7.044;2023-02-18T13:37:31;12.20;1.00
10129;DHT22;5104;50.720;7.044;2023-02-18T13:40:01;12.20;98.20
10129;DHT22;5104;50.720;7.044;2023-02-18T13:42:38;12.20;99.90
10129;DHT22;5104;50.720;7.044;2023-02-18T13:45:26;12.30;87.40
10129;DHT22;5104;50.720;7.044;2023-02-18T13:47:54;12.50;1.00
10129;DHT22;5104;50.720;7.044;2023-02-18T13:50:32;12.60;99.90
10129;DHT22;5104;50.720;7.044;2023-02-18T13:53:25;12.70;25.80
10129;DHT22;5104;50.720;7.044;2023-02-18T13:55:59;12.70;1.00
10129;DHT22;5104;50.720;7.044;2023-02-18T13:58:35;12.70;1.00
10129;DHT22;5104;50.720;7.044;2023-02-18T14:01:05;12.80;1.00
10129;DHT22;5104;50.720;7.044;2023-02-18T14:03:49;12.80;1.00
10129;DHT22;5104;50.720;7.044;2023-02-18T14:06:19;12.90;1.00
10129;DHT22;5104;50.720;7.044;2023-02-18T14:08:47;12.80;1.00
10129;DHT22;5104;50.720;7.044;2023-02-18T14:11:33;12.70;1.00
10129;DHT22;5104;50.720;7.044;2023-02-18T14:14:37;12.70;99.90
10129;DHT22;5104;50.720;7.044;2023-02-18T14:17:33;12.60;99.90
10129;DHT22;5104;50.720;7.044;2023-02-18T14:26:24;12.60;99.90
10129;DHT22;5104;50.720;7.044;2023-02-18T14:28:55;12.60;19.00
10129;DHT22;5104;50.720;7.044;2023-02-18T14:31:52;12.70;1.00
10129;DHT22;5104;50.720;7.044;2023-02-18T14:40:32;12.50;1.00
10129;DHT22;5104;50.720;7.044;2023-02-18T14:43:07;12.40;68.10
10129;DHT22;5104;50.720;7.044;2023-02-18T14:46:04;12.40;1.00
10129;DHT22;5104;50.720;7.044;2023-02-18T14:48:51;12.40;1.00
10129;DHT22;5104;50.720;7.044;2023-02-18T14:51:22;12.40;99.90
10129;DHT22;5104;50.720;7.044;2023-02-18T14:53:51;12.30;99.90
10129;DHT22;5104;50.720;7.044;2023-02-18T14:56:20;12.20;99.90
10129;DHT22;5104;50.720;7.044;2023-02-18T14:58:51;12.20;99.90
10129;DHT22;5104;50.720;7.044;2023-02-18T15:01:26;12.20;1.00
10129;DHT22;5104;50.720;7.044;2023-02-18T15:03:54;12.20;99.90
10129;DHT22;5104;50.720;7.044;2023-02-18T15:06:28;12.30;99.90
10129;DHT22;5104;50.720;7.044;2023-02-18T15:08:56;12.30;99.90
10129;DHT22;5104;50.720;7.044;2023-02-18T15:11:26;12.30;99.90
10129;DHT22;5104;50.720;7.044;2023-02-18T15:13:55;12.40;99.90
10129;DHT22;5104;50.720;7.044;2023-02-18T15:16:28;12.40;99.90
10129;DHT22;5104;50.720;7.044;2023-02-18T15:18:58;12.40;99.90
10129;DHT22;5104;50.720;7.044;2023-02-18T15:21:29;12.30;99.90
10129;DHT22;5104;50.720;7.044;2023-02-18T15:24:03;12.30;99.90
10129;DHT22;5104;50.720;7.044;2023-02-18T15:26:31;12.30;99.90
10129;DHT22;5104;50.720;7.044;2023-02-18T15:29:02;12.30;99.90
10129;DHT22;5104;50.720;7.044;2023-02-18T15:31:34;12.20;99.90
10129;DHT22;5104;50.720;7.044;2023-02-18T15:34:01;12.20;99.90
10129;DHT22;5104;50.720;7.044;2023-02-18T15:36:30;12.20;99.90
10129;DHT22;5104;50.720;7.044;2023-02-18T15:38:57;12.30;99.90
10129;DHT22;5104;50.720;7.044;2023-02-18T15:41:24;12.30;99.90
10129;DHT22;5104;50.720;7.044;2023-02-18T15:43:53;12.30;99.90
10129;DHT22;5104;50.720;7.044;2023-02-18T15:46:23;12.30;95.90
10129;DHT22;5104;50.720;7.044;2023-02-18T15:48:51;12.30;99.90
10129;DHT22;5104;50.720;7.044;2023-02-18T15:51:21;12.30;99.90
10129;DHT22;5104;50.720;7.044;2023-02-18T15:53:51;12.20;99.90
10129;DHT22;5104;50.720;7.044;2023-02-18T15:56:25;12.20;99.90
10129;DHT22;5104;50.720;7.044;2023-02-18T15:59:06;12.20;1.00
10129;DHT22;5104;50.720;7.044;2023-02-18T16:01:35;12.10;1.00
10129;DHT22;5104;50.720;7.044;2023-02-18T16:04:05;12.10;1.00
10129;DHT22;5104;50.720;7.044;2023-02-18T16:06:37;12.10;1.00
10129;DHT22;5104;50.720;7.044;2023-02-18T16:09:12;12.00;1.00
10129;DHT22;5104;50.720;7.044;2023-02-18T16:11:44;12.00;1.00
10129;DHT22;5104;50.720;7.044;2023-02-18T16:14:27;12.00;1.00
10129;DHT22;5104;50.720;7.044;2023-02-18T16:17:05;12.00;1.00
10129;DHT22;5104;50.720;7.044;2023-02-18T16:19:33;11.90;99.90
10129;DHT22;5104;50.720;7.044;2023-02-18T16:22:03;11.90;99.90
10129;DHT22;5104;50.720;7.044;2023-02-18T16:24:32;11.90;23.10
10129;DHT22;5104;50.720;7.044;2023-02-18T16:27:07;11.80;99.90
10129;DHT22;5104;50.720;7.044;2023-02-18T16:29:40;11.80;1.00
10129;DHT22;5104;50.720;7.044;2023-02-18T16:32:09;11.70;1.00
10129;DHT22;5104;50.720;7.044;2023-02-18T16:34:36;11.70;1.00
10129;DHT22;5104;50.720;7.044;2023-02-18T16:37:03;11.70;1.00
10129;DHT22;5104;50.720;7.044;2023-02-18T16:39:49;11.60;44.90
10129;DHT22;5104;50.720;7.044;2023-02-18T16:42:19;11.50;1.00